^^
Station Historical Data
Daily Summary for September 20, 2021 Units:  English    Metric   Both
Daily Weekly Monthly Yearly
  High: Low: Average:
Temperature: 77.5 °F 65.3 °F 71.4 °F
Dew Point: 68.5 °F 54.8 °F 64.8 °F
Humidity: 87% 63% 80%
Wind Speed: 3mph 1mph 1.9mph
Wind Gust: 5mph - -
Wind- - SSE
Pressure: 30.07 in 29.90 in -
Precipitation: 0.02 in    
 
 
Tabular Data for September 20, 2021
Time Temperature Dew Point Pressure Wind Wind Speed Wind Gust Humidity Rainfall Rate (Hourly) solar
00:10 68 °F 56.2 °F 30.06 in SSE 2 mph 4 mph 66% 0.00 in 0 W/m2
00:30 67.9 °F 55.7 °F 30.07 in SSE 2 mph 2 mph 65% 0.00 in 0 W/m2
00:35 67.9 °F 55.3 °F 30.07 in SE 2 mph 2 mph 64% 0.00 in 0 W/m2
00:40 68 °F 55.8 °F 30.06 in ENE 2 mph 2 mph 65% 0.00 in 0 W/m2
00:45 67.9 °F 54.8 °F 30.06 in SSW 2 mph 2 mph 63% 0.00 in 0 W/m2
00:50 67.7 °F 55.9 °F 30.06 in SE 2 mph 3 mph 66% 0.00 in 0 W/m2
01:00 67.4 °F 56.9 °F 30.06 in SW 2 mph 2 mph 69% 0.00 in 0 W/m2
01:10 67.1 °F 57 °F 30.07 in ENE 2 mph 2 mph 70% 0.00 in 0 W/m2
01:20 66.8 °F 57.1 °F 30.06 in SE 3 mph 5 mph 71% 0.00 in 0 W/m2
01:30 66.5 °F 57.2 °F 30.06 in NNE 2 mph 3 mph 72% 0.00 in 0 W/m2
01:40 66.3 °F 57.4 °F 30.06 in SW 2 mph 2 mph 73% 0.00 in 0 W/m2
01:45 66.2 °F 57.3 °F 30.06 in South 2 mph 2 mph 73% 0.00 in 0 W/m2
01:50 66.1 °F 57.2 °F 30.06 in SW 2 mph 2 mph 73% 0.00 in 0 W/m2
02:00 65.9 °F 57.4 °F 30.06 in South 2 mph 3 mph 74% 0.00 in 0 W/m2
02:06 66 °F 57.8 °F 30.06 in South 2 mph 3 mph 75% 0.00 in 0 W/m2
02:10 65.9 °F 57.4 °F 30.06 in SSE 2 mph 2 mph 74% 0.00 in 0 W/m2
02:20 65.8 °F 57.7 °F 30.06 in SE 2 mph 2 mph 75% 0.00 in 0 W/m2
02:30 65.8 °F 57.7 °F 30.06 in SE 2 mph 2 mph 75% 0.00 in 0 W/m2
02:40 65.7 °F 58.3 °F 30.06 in SE 2 mph 2 mph 77% 0.00 in 0 W/m2
02:45 65.6 °F 58.2 °F 30.06 in SE 2 mph 2 mph 77% 0.00 in 0 W/m2
02:50 65.6 °F 58.2 °F 30.06 in SE 2 mph 4 mph 77% 0.00 in 0 W/m2
03:00 65.5 °F 58.5 °F 30.06 in ESE 2 mph 2 mph 78% 0.00 in 0 W/m2
03:10 65.5 °F 58.8 °F 30.06 in ENE 2 mph 2 mph 79% 0.00 in 0 W/m2
03:20 65.5 °F 59.2 °F 30.05 in WSW 2 mph 3 mph 80% 0.00 in 0 W/m2
03:25 65.5 °F 59.2 °F 30.05 in SE 2 mph 3 mph 80% 0.00 in 0 W/m2
03:30 65.6 °F 59.6 °F 30.05 in ENE 2 mph 2 mph 81% 0.00 in 0 W/m2
03:40 65.5 °F 59.5 °F 30.05 in South 2 mph 3 mph 81% 0.00 in 0 W/m2
03:46 65.6 °F 59.6 °F 30.05 in South 2 mph 3 mph 81% 0.00 in 0 W/m2
03:50 65.6 °F 60 °F 30.05 in South 2 mph 3 mph 82% 0.00 in 0 W/m2
03:55 65.6 °F 60 °F 30.04 in West 3 mph 3 mph 82% 0.00 in 0 W/m2
04:00 65.6 °F 60 °F 30.04 in ESE 3 mph 3 mph 82% 0.00 in 0 W/m2
04:06 65.6 °F 60 °F 30.04 in SSE 3 mph 3 mph 82% 0.00 in 0 W/m2
04:10 65.6 °F 60 °F 30.04 in ESE 2 mph 3 mph 82% 0.00 in 0 W/m2
04:20 65.6 °F 60 °F 30.04 in East 2 mph 2 mph 82% 0.00 in 0 W/m2
04:26 65.6 °F 60 °F 30.03 in ESE 2 mph 2 mph 82% 0.00 in 0 W/m2
04:30 65.5 °F 59.9 °F 30.04 in ESE 2 mph 2 mph 82% 0.00 in 0 W/m2
04:36 65.5 °F 60.2 °F 30.03 in NE 2 mph 2 mph 83% 0.00 in 0 W/m2
04:40 65.5 °F 60.2 °F 30.03 in SE 2 mph 3 mph 83% 0.00 in 0 W/m2
04:45 65.5 °F 60.2 °F 30.03 in West 2 mph 3 mph 83% 0.00 in 0 W/m2
04:50 65.6 °F 60.3 °F 30.03 in ESE 2 mph 3 mph 83% 0.00 in 0 W/m2
05:00 65.6 °F 60.6 °F 30.03 in ESE 2 mph 2 mph 84% 0.00 in 0 W/m2
05:10 65.6 °F 60.3 °F 30.02 in SE 2 mph 2 mph 83% 0.00 in 0 W/m2
05:15 65.6 °F 60.6 °F 30.02 in ENE 2 mph 2 mph 84% 0.00 in 0 W/m2
05:20 65.7 °F 60.7 °F 30.02 in East 2 mph 2 mph 84% 0.00 in 0 W/m2
05:25 65.7 °F 60.7 °F 30.02 in ESE 2 mph 2 mph 84% 0.00 in 0 W/m2
05:30 65.6 °F 60.6 °F 30.02 in SE 2 mph 2 mph 84% 0.00 in 0 W/m2
05:40 65.6 °F 60.6 °F 30.02 in SSE 2 mph 2 mph 84% 0.00 in 0 W/m2
05:45 65.6 °F 60.6 °F 30.02 in SE 2 mph 2 mph 84% 0.00 in 0 W/m2
05:50 65.5 °F 60.5 °F 30.02 in South 2 mph 2 mph 84% 0.00 in 0 W/m2
05:55 65.5 °F 60.5 °F 30.02 in SSE 2 mph 2 mph 84% 0.00 in 0 W/m2
06:00 65.5 °F 60.5 °F 30.02 in SSE 2 mph 2 mph 84% 0.00 in 0 W/m2
06:10 65.4 °F 60.8 °F 30.02 in WSW 2 mph 2 mph 85% 0.00 in 0 W/m2
06:20 65.3 °F 60.3 °F 30.02 in ESE 1 mph 3 mph 84% 0.00 in 0 W/m2
06:30 65.4 °F 60.8 °F 30.02 in East 2 mph 3 mph 85% 0.00 in 0 W/m2
06:40 65.4 °F 60.8 °F 30.02 in SSE 2 mph 2 mph 85% 0.00 in 0 W/m2
06:46 65.5 °F 60.9 °F 30.01 in SE 2 mph 2 mph 85% 0.00 in 0 W/m2
06:50 65.4 °F 60.4 °F 30.01 in ESE 2 mph 2 mph 84% 0.00 in 0 W/m2
07:00 65.5 °F 60.9 °F 30.01 in SW 2 mph 2 mph 85% 0.00 in 0 W/m2
07:10 65.4 °F 60.8 °F 30.01 in South 2 mph 2 mph 85% 0.00 in 5 W/m2
07:16 65.3 °F 60.7 °F 30.01 in SE 2 mph 2 mph 85% 0.00 in 0 W/m2
07:20 65.4 °F 60.8 °F 30.01 in SSW 2 mph 4 mph 85% 0.00 in 5 W/m2
07:25 65.4 °F 60.8 °F 30.01 in SSW 2 mph 4 mph 85% 0.00 in 7 W/m2
07:30 65.5 °F 60.9 °F 30.02 in South 2 mph 2 mph 85% 0.00 in 11 W/m2
07:40 65.5 °F 60.9 °F 30.02 in SW 2 mph 2 mph 85% 0.00 in 16 W/m2
07:50 65.6 °F 61 °F 30.02 in South 2 mph 2 mph 85% 0.00 in 30 W/m2
08:10 65.9 °F 61.3 °F 30.02 in SE 2 mph 2 mph 85% 0.00 in 44 W/m2
08:21 65.9 °F 60.9 °F 30.02 in SE 2 mph 2 mph 84% 0.00 in 100 W/m2
08:41 66.3 °F 61.3 °F 30.02 in South 2 mph 2 mph 84% 0.00 in 179 W/m2
08:50 66.5 °F 61.5 °F 30.02 in East 2 mph 2 mph 84% 0.00 in 121 W/m2
09:00 66.8 °F 61.8 °F 30.02 in ENE 2 mph 3 mph 84% 0.00 in 79 W/m2
09:20 67.3 °F 62.3 °F 30.02 in ENE 2 mph 2 mph 84% 0.00 in 93 W/m2
09:30 67.6 °F 62.3 °F 30.01 in SSE 2 mph 4 mph 83% 0.00 in 100 W/m2
10:00 68.9 °F 63.5 °F 30.02 in SE 2 mph 3 mph 83% 0.00 in 128 W/m2
10:05 69 °F 63.6 °F 30.02 in SE 2 mph 3 mph 83% 0.00 in 128 W/m2
10:10 69.2 °F 63.8 °F 30.02 in SE 2 mph 2 mph 83% 0.00 in 163 W/m2
10:15 69.7 °F 64.3 °F 30.02 in North 2 mph 2 mph 83% 0.00 in 200 W/m2
10:20 70 °F 64.2 °F 30.02 in East 2 mph 2 mph 82% 0.00 in 186 W/m2
10:25 70.1 °F 64.3 °F 30.02 in NW 2 mph 2 mph 82% 0.00 in 111 W/m2
10:30 70.2 °F 64.4 °F 30.02 in South 2 mph 2 mph 82% 0.00 in 188 W/m2
10:35 70.5 °F 64.7 °F 30.02 in South 2 mph 2 mph 82% 0.00 in 230 W/m2
10:40 70.8 °F 65 °F 30.02 in South 2 mph 2 mph 82% 0.00 in 299 W/m2
10:45 71.1 °F 65.3 °F 30.01 in SE 1 mph 2 mph 82% 0.00 in 316 W/m2
10:50 71.5 °F 65.7 °F 30.01 in East 2 mph 2 mph 82% 0.00 in 564 W/m2
10:55 72.1 °F 66.3 °F 30.01 in WNW 2 mph 2 mph 82% 0.00 in 520 W/m2
11:00 72.5 °F 66.3 °F 30.01 in SSE 2 mph 2 mph 81% 0.00 in 506 W/m2
11:05 72.8 °F 66.3 °F 30.01 in South 2 mph 3 mph 80% 0.00 in 512 W/m2
11:10 73 °F 66.5 °F 30.01 in SE 2 mph 2 mph 80% 0.00 in 520 W/m2
11:15 73.2 °F 67 °F 30.01 in SSW 2 mph 2 mph 81% 0.00 in 529 W/m2
11:20 73.4 °F 66.9 °F 30.00 in South 1 mph 1 mph 80% 0.00 in 541 W/m2
11:25 73.6 °F 67 °F 30.00 in East 1 mph 2 mph 80% 0.00 in 548 W/m2
11:30 73.9 °F 67 °F 30.00 in SE 1 mph 1 mph 79% 0.00 in 559 W/m2
11:35 74.2 °F 67.3 °F 30.00 in SSW 1 mph 1 mph 79% 0.00 in 568 W/m2
11:40 74.3 °F 67.4 °F 30.00 in South 1 mph 1 mph 79% 0.00 in 410 W/m2
11:45 74.8 °F 67.8 °F 30.00 in SE 1 mph 2 mph 79% 0.00 in 613 W/m2
11:50 75.3 °F 68 °F 30.00 in NW 1 mph 1 mph 78% 0.00 in 297 W/m2
11:55 75.6 °F 67.9 °F 30.00 in East 1 mph 2 mph 77% 0.00 in 436 W/m2
12:00 76.2 °F 68.1 °F 30.00 in NE 1 mph 1 mph 76% 0.00 in 598 W/m2
12:05 76.4 °F 67.9 °F 29.99 in NE 1 mph 1 mph 75% 0.00 in 383 W/m2
12:10 76.3 °F 67.8 °F 29.99 in East 2 mph 2 mph 75% 0.00 in 311 W/m2
12:15 76.3 °F 67.8 °F 29.99 in WNW 2 mph 2 mph 75% 0.00 in 376 W/m2
12:20 76.4 °F 67.9 °F 29.99 in East 2 mph 2 mph 75% 0.00 in 621 W/m2
12:25 76.2 °F 68.1 °F 29.99 in SE 1 mph 2 mph 76% 0.00 in 417 W/m2
12:30 76.2 °F 68.1 °F 29.99 in North 1 mph 1 mph 76% 0.00 in 496 W/m2
12:35 76.2 °F 68.1 °F 29.99 in SE 1 mph 1 mph 76% 0.00 in 582 W/m2
12:40 76.2 °F 68.1 °F 29.99 in South 1 mph 1 mph 76% 0.00 in 455 W/m2
12:45 76.4 °F 67.9 °F 29.99 in ENE 1 mph 1 mph 75% 0.00 in 422 W/m2
12:50 76.7 °F 68.2 °F 29.99 in East 1 mph 1 mph 75% 0.00 in 536 W/m2
12:55 76.6 °F 68.1 °F 29.99 in SSW 1 mph 1 mph 75% 0.00 in 336 W/m2
13:00 76.8 °F 68.3 °F 29.99 in ESE 2 mph 2 mph 75% 0.00 in 306 W/m2
13:05 77.2 °F 67.9 °F 29.99 in North 2 mph 3 mph 73% 0.00 in 244 W/m2
13:10 77.4 °F 68.1 °F 29.99 in South 2 mph 2 mph 73% 0.00 in 274 W/m2
13:15 77.3 °F 68 °F 29.98 in North 2 mph 4 mph 73% 0.00 in 316 W/m2
13:20 77.5 °F 68.2 °F 29.98 in ESE 2 mph 2 mph 73% 0.00 in 367 W/m2
13:25 77.2 °F 67.9 °F 29.98 in WNW 2 mph 2 mph 73% 0.00 in 366 W/m2
13:30 77.1 °F 67.4 °F 29.98 in North 2 mph 2 mph 72% 0.00 in 281 W/m2
13:35 77.2 °F 67.9 °F 29.98 in North 2 mph 2 mph 73% 0.00 in 265 W/m2
13:40 76.9 °F 68 °F 29.98 in East 2 mph 2 mph 74% 0.00 in 176 W/m2
13:45 76.6 °F 68.1 °F 29.99 in ESE 2 mph 2 mph 75% 0.00 in 141 W/m2
13:50 76.4 °F 67.5 °F 29.98 in NNE 2 mph 2 mph 74% 0.00 in 114 W/m2
13:55 76.6 °F 67.7 °F 29.98 in NE 2 mph 2 mph 74% 0.00 in 104 W/m2
14:00 76.4 °F 67.5 °F 29.98 in NE 2 mph 2 mph 74% 0.00 in 127 W/m2
14:05 76.1 °F 68 °F 29.98 in NNW 2 mph 2 mph 76% 0.00 in 130 W/m2
14:10 75.9 °F 67.8 °F 29.98 in NNE 2 mph 2 mph 76% 0.00 in 109 W/m2
14:15 75.8 °F 68.1 °F 29.98 in SE 2 mph 2 mph 77% 0.00 in 125 W/m2
14:20 75.6 °F 67.9 °F 29.98 in SSE 2 mph 3 mph 77% 0.00 in 123 W/m2
14:25 75.5 °F 67.8 °F 29.98 in SSE 2 mph 3 mph 77% 0.00 in 135 W/m2
14:30 75.4 °F 67.7 °F 29.98 in SW 2 mph 2 mph 77% 0.00 in 171 W/m2
14:35 75.2 °F 68.2 °F 29.98 in West 2 mph 2 mph 79% 0.00 in 151 W/m2
14:40 74.9 °F 68.3 °F 29.98 in ESE 2 mph 2 mph 80% 0.00 in 135 W/m2
14:45 74.5 °F 68.3 °F 29.97 in ESE 1 mph 2 mph 81% 0.00 in 120 W/m2
14:50 74.3 °F 68.1 °F 29.97 in WNW 1 mph 1 mph 81% 0.00 in 100 W/m2
14:55 74.2 °F 68.3 °F 29.97 in ESE 1 mph 1 mph 82% 0.00 in 128 W/m2
15:00 74.1 °F 68.3 °F 29.97 in South 1 mph 1 mph 82% 0.00 in 127 W/m2
15:05 73.9 °F 68.4 °F 29.97 in East 1 mph 1 mph 83% 0.00 in 130 W/m2
15:10 73.9 °F 68.4 °F 29.97 in SE 1 mph 1 mph 83% 0.00 in 142 W/m2
15:15 74 °F 68.5 °F 29.96 in SSE 1 mph 2 mph 83% 0.00 in 123 W/m2
15:20 74.1 °F 68.3 °F 29.96 in WSW 1 mph 1 mph 82% 0.00 in 137 W/m2
15:25 74.1 °F 67.9 °F 29.96 in ESE 1 mph 1 mph 81% 0.00 in 186 W/m2
15:30 74.4 °F 67.8 °F 29.96 in ENE 2 mph 2 mph 80% 0.00 in 251 W/m2
15:35 74.9 °F 67.9 °F 29.96 in SE 2 mph 3 mph 79% 0.00 in 214 W/m2
15:40 75.4 °F 67.7 °F 29.95 in SE 2 mph 2 mph 77% 0.00 in 128 W/m2
15:45 75.7 °F 67.6 °F 29.96 in SSE 3 mph 3 mph 76% 0.00 in 137 W/m2
15:50 75.8 °F 67.7 °F 29.96 in South 3 mph 3 mph 76% 0.00 in 121 W/m2
15:55 75.7 °F 67.6 °F 29.95 in ESE 2 mph 3 mph 76% 0.00 in 100 W/m2
16:00 75.8 °F 67.3 °F 29.95 in NE 3 mph 3 mph 75% 0.00 in 88 W/m2
16:05 75.8 °F 67.3 °F 29.95 in South 3 mph 3 mph 75% 0.00 in 107 W/m2
16:10 75.8 °F 67.7 °F 29.94 in SE 3 mph 3 mph 76% 0.00 in 90 W/m2
16:15 75.8 °F 67.3 °F 29.94 in SSE 2 mph 4 mph 75% 0.00 in 102 W/m2
16:20 75.9 °F 67.8 °F 29.94 in SE 3 mph 3 mph 76% 0.00 in 111 W/m2
16:25 75.9 °F 67.4 °F 29.94 in SE 2 mph 3 mph 75% 0.00 in 95 W/m2
16:30 76 °F 67.5 °F 29.94 in ESE 2 mph 4 mph 75% 0.00 in 86 W/m2
16:35 76.2 °F 67.3 °F 29.94 in South 3 mph 4 mph 74% 0.00 in 113 W/m2
16:40 76.2 °F 67.3 °F 29.94 in SW 3 mph 3 mph 74% 0.00 in 120 W/m2
16:45 75.9 °F 67.4 °F 29.94 in ESE 3 mph 3 mph 75% 0.00 in 125 W/m2
16:50 75.9 °F 67.8 °F 29.94 in SE 3 mph 3 mph 76% 0.00 in 144 W/m2
17:00 75.9 °F 67.4 °F 29.94 in WNW 3 mph 3 mph 75% 0.00 in 113 W/m2
17:05 76.1 °F 67.6 °F 29.93 in SSE 3 mph 3 mph 75% 0.00 in 100 W/m2
17:10 76 °F 67.9 °F 29.93 in NNW 3 mph 3 mph 76% 0.00 in 84 W/m2
17:15 75.9 °F 67.8 °F 29.93 in SE 3 mph 3 mph 76% 0.00 in 65 W/m2
17:20 75.9 °F 67.8 °F 29.93 in SE 3 mph 3 mph 76% 0.00 in 46 W/m2
17:25 75.8 °F 67.7 °F 29.93 in SSW 3 mph 3 mph 76% 0.00 in 39 W/m2
17:30 76 °F 67.9 °F 29.94 in SE 3 mph 3 mph 76% 0.00 in 35 W/m2
17:35 76.2 °F 67.7 °F 29.93 in ESE 3 mph 3 mph 75% 0.00 in 30 W/m2
17:40 76.1 °F 67.6 °F 29.93 in West 3 mph 3 mph 75% 0.00 in 28 W/m2
17:45 76 °F 67.5 °F 29.94 in SE 3 mph 3 mph 75% 0.00 in 25 W/m2
17:50 76 °F 67.9 °F 29.94 in NW 3 mph 4 mph 76% 0.00 in 19 W/m2
17:55 75.6 °F 68.3 °F 29.94 in WSW 3 mph 4 mph 78% 0.00 in 18 W/m2
18:00 74.7 °F 68.1 °F 29.94 in North 3 mph 3 mph 80% 0.00 in 12 W/m2
18:05 74.1 °F 67.9 °F 29.94 in North 3 mph 3 mph 81% 0.00 in 16 W/m2
18:10 73.5 °F 68 °F 29.93 in North 3 mph 4 mph 83% 0.32 in 19 W/m2
18:15 72.9 °F 67.8 °F 29.93 in West 2 mph 4 mph 84% 0.10 in 19 W/m2
18:20 72.7 °F 67.9 °F 29.93 in East 2 mph 2 mph 85% 0.05 in 25 W/m2
18:25 72.5 °F 68.1 °F 29.93 in NNE 2 mph 2 mph 86% 0.04 in 25 W/m2
18:30 72.4 °F 68.3 °F 29.93 in SE 1 mph 1 mph 87% 0.00 in 25 W/m2
18:35 72.2 °F 68.1 °F 29.93 in East 1 mph 1 mph 87% 0.00 in 25 W/m2
18:40 72.2 °F 68.1 °F 29.92 in North 1 mph 2 mph 87% 0.00 in 32 W/m2
18:45 72.3 °F 68.2 °F 29.92 in SE 1 mph 2 mph 87% 0.00 in 30 W/m2
18:50 72.3 °F 68.2 °F 29.92 in ESE 1 mph 1 mph 87% 0.00 in 25 W/m2
18:55 72.2 °F 68.1 °F 29.93 in WSW 1 mph 2 mph 87% 0.00 in 30 W/m2
19:00 72.2 °F 68.1 °F 29.92 in ESE 2 mph 2 mph 87% 0.00 in 47 W/m2
19:05 72.2 °F 68.1 °F 29.92 in West 1 mph 2 mph 87% 0.00 in 54 W/m2
19:10 72.2 °F 68.1 °F 29.92 in ENE 1 mph 2 mph 87% 0.00 in 44 W/m2
19:15 72.2 °F 68.1 °F 29.92 in West 1 mph 3 mph 87% 0.00 in 46 W/m2
19:20 72.2 °F 68.1 °F 29.92 in ENE 1 mph 1 mph 87% 0.00 in 58 W/m2
19:25 72.2 °F 68.1 °F 29.92 in North 1 mph 1 mph 87% 0.00 in 46 W/m2
19:30 72.3 °F 68.2 °F 29.92 in ESE 1 mph 1 mph 87% 0.00 in 44 W/m2
19:35 72.3 °F 68.2 °F 29.92 in NW 1 mph 1 mph 87% 0.00 in 33 W/m2
19:40 72.3 °F 68.2 °F 29.92 in SE 1 mph 2 mph 87% 0.00 in 11 W/m2
19:45 72.4 °F 68.3 °F 29.92 in ESE 1 mph 2 mph 87% 0.00 in 0 W/m2
19:50 72.6 °F 68.5 °F 29.91 in SE 2 mph 2 mph 87% 0.00 in 0 W/m2
19:55 72.6 °F 68.2 °F 29.91 in West 2 mph 2 mph 86% 0.00 in 0 W/m2
20:00 72.7 °F 68.3 °F 29.91 in SSE 2 mph 2 mph 86% 0.00 in 0 W/m2
20:05 72.7 °F 68.3 °F 29.91 in NW 2 mph 2 mph 86% 0.00 in 0 W/m2
20:10 72.8 °F 68.4 °F 29.91 in WSW 2 mph 2 mph 86% 0.00 in 0 W/m2
20:15 72.8 °F 68.4 °F 29.91 in NE 2 mph 2 mph 86% 0.00 in 0 W/m2
20:20 72.8 °F 68.4 °F 29.91 in NNE 2 mph 3 mph 86% 0.00 in 0 W/m2
20:25 72.8 °F 68 °F 29.90 in SE 2 mph 4 mph 85% 0.00 in 0 W/m2
20:30 72.8 °F 68 °F 29.90 in NW 2 mph 2 mph 85% 0.00 in 0 W/m2
20:35 73 °F 68.2 °F 29.90 in SSE 2 mph 3 mph 85% 0.00 in 0 W/m2
20:40 73.1 °F 68 °F 29.90 in WNW 3 mph 5 mph 84% 0.00 in 0 W/m2
20:45 73.1 °F 68 °F 29.91 in ENE 3 mph 5 mph 84% 0.00 in 0 W/m2
20:50 73.1 °F 68 °F 29.91 in NNE 2 mph 2 mph 84% 0.00 in 0 W/m2
20:55 73.1 °F 68 °F 29.91 in WNW 2 mph 3 mph 84% 0.00 in 0 W/m2
21:00 73 °F 68.2 °F 29.91 in SW 3 mph 5 mph 85% 0.00 in 0 W/m2
21:05 73 °F 68.2 °F 29.91 in SE 2 mph 5 mph 85% 0.00 in 0 W/m2
21:10 72.9 °F 68.1 °F 29.91 in North 2 mph 2 mph 85% 0.00 in 0 W/m2
21:15 72.8 °F 68 °F 29.91 in North 2 mph 3 mph 85% 0.00 in 0 W/m2
21:20 72.7 °F 67.9 °F 29.91 in SSW 2 mph 2 mph 85% 0.00 in 0 W/m2
21:25 72.6 °F 67.8 °F 29.90 in NNE 2 mph 2 mph 85% 0.00 in 0 W/m2
21:30 72.6 °F 67.8 °F 29.90 in East 2 mph 2 mph 85% 0.00 in 0 W/m2
Sand Point, Michigan, USA
Compliments of Weather Underground - 2 mb